createdAt,value
2022-10-31T00:01:13.809Z,81.02
2022-10-31T00:03:40.830Z,80.98
2022-10-31T00:06:08.091Z,80.94
2022-10-31T00:08:35.500Z,80.89
2022-10-31T00:11:02.941Z,80.76
2022-10-31T00:13:32.163Z,80.82
2022-10-31T00:15:59.164Z,81.37
2022-10-31T00:18:25.974Z,81.45
2022-10-31T00:21:00.230Z,81.16
2022-10-31T00:23:27.031Z,80.90
2022-10-31T00:25:53.818Z,80.88
2022-10-31T00:28:20.572Z,80.95
2022-10-31T00:30:48.690Z,80.87
2022-10-31T00:33:16.112Z,80.87
2022-10-31T00:35:43.070Z,80.84
2022-10-31T00:38:09.816Z,81.01
2022-10-31T00:40:36.604Z,81.21
2022-10-31T00:43:04.029Z,80.71
2022-10-31T00:45:31.907Z,80.79
2022-10-31T00:48:00.626Z,81.01
2022-10-31T00:50:27.633Z,80.42
2022-10-31T00:52:54.813Z,80.30
2022-10-31T00:55:21.561Z,79.95
2022-10-31T00:57:48.375Z,80.48
2022-10-31T01:00:16.266Z,80.57
2022-10-31T01:02:43.417Z,80.52
2022-10-31T01:05:11.582Z,80.68
2022-10-31T01:07:40.433Z,81.35
2022-10-31T01:10:11.641Z,81.39
2022-10-31T01:12:40.093Z,80.91
2022-10-31T01:15:09.089Z,80.65
2022-10-31T01:17:36.231Z,80.71
2022-10-31T01:20:05.984Z,81.20
2022-10-31T01:22:34.618Z,80.95
2022-10-31T01:25:01.614Z,80.64
2022-10-31T01:27:28.429Z,80.33
2022-10-31T01:29:55.215Z,79.91
2022-10-31T01:32:22.203Z,79.70
2022-10-31T01:34:50.206Z,80.05
2022-10-31T01:37:17.461Z,79.45
2022-10-31T01:39:45.530Z,79.49
2022-10-31T01:42:21.101Z,79.56
2022-10-31T01:45:01.014Z,79.60
2022-10-31T01:47:41.721Z,80.19
2022-10-31T01:50:23.564Z,80.24
2022-10-31T01:52:52.733Z,80.48
2022-10-31T01:55:30.046Z,81.55
2022-10-31T01:58:05.428Z,81.70
2022-10-31T02:00:32.640Z,81.77
2022-10-31T02:03:00.294Z,81.30
2022-10-31T02:05:31.208Z,81.21
2022-10-31T02:08:06.469Z,81.31
2022-10-31T02:10:37.585Z,81.08
2022-10-31T02:13:08.373Z,81.40
2022-10-31T02:15:45.983Z,81.78
2022-10-31T02:18:13.235Z,81.89
2022-10-31T02:20:54.160Z,81.53
2022-10-31T02:23:53.486Z,81.47
2022-10-31T02:26:51.717Z,81.99
2022-10-31T02:29:58.022Z,82.72
2022-10-31T02:32:39.357Z,83.08
2022-10-31T02:35:17.385Z,82.79
2022-10-31T02:37:55.605Z,82.34
2022-10-31T02:40:31.761Z,80.78
2022-10-31T02:43:33.616Z,81.17
2022-10-31T02:46:11.903Z,80.64
2022-10-31T02:48:46.177Z,80.26
2022-10-31T02:51:14.121Z,80.51
2022-10-31T02:53:40.833Z,79.80
2022-10-31T02:56:16.926Z,80.13
2022-10-31T02:58:52.849Z,80.27
2022-10-31T03:02:01.931Z,80.28
2022-10-31T03:05:02.952Z,80.47
2022-10-31T03:07:43.238Z,80.76
2022-10-31T03:10:25.978Z,82.07
2022-10-31T03:13:02.882Z,82.03
2022-10-31T03:15:35.081Z,81.55
2022-10-31T03:18:09.385Z,81.68
2022-10-31T03:20:42.577Z,81.75
2022-10-31T03:23:15.242Z,81.51
2022-10-31T03:25:44.751Z,81.59
2022-10-31T03:28:20.537Z,81.18
2022-10-31T03:30:51.585Z,81.55
2022-10-31T03:33:27.481Z,80.73
2022-10-31T03:36:03.376Z,81.22
2022-10-31T03:38:33.105Z,80.72
2022-10-31T03:41:04.442Z,80.79
2022-10-31T03:43:38.927Z,81.11
2022-10-31T03:46:07.409Z,81.04
2022-10-31T03:48:34.812Z,81.38
2022-10-31T03:51:15.773Z,81.86
2022-10-31T03:53:53.634Z,82.18
2022-10-31T03:56:34.436Z,82.84
2022-10-31T03:59:09.176Z,82.95
2022-10-31T04:01:44.228Z,82.70
2022-10-31T04:04:12.572Z,82.29
2022-10-31T04:06:46.135Z,83.18
2022-10-31T04:09:15.601Z,83.22
2022-10-31T04:11:51.029Z,82.57
2022-10-31T04:14:43.529Z,82.48
2022-10-31T04:17:15.004Z,81.85
2022-10-31T04:19:43.090Z,81.81
2022-10-31T04:22:12.039Z,81.97
2022-10-31T04:24:41.398Z,82.34
2022-10-31T04:27:12.678Z,82.76
2022-10-31T04:29:39.640Z,82.90
2022-10-31T04:32:06.373Z,83.75
2022-10-31T04:34:33.480Z,84.35
2022-10-31T04:37:00.227Z,84.23
2022-10-31T04:39:29.361Z,84.62
2022-10-31T04:42:14.596Z,85.24
2022-10-31T04:44:41.445Z,85.01
2022-10-31T04:47:08.629Z,84.91
2022-10-31T04:49:36.562Z,84.99
2022-10-31T04:52:03.469Z,85.10
2022-10-31T04:54:32.312Z,85.37
2022-10-31T04:57:17.766Z,85.22
2022-10-31T04:59:45.135Z,85.47
2022-10-31T05:02:12.085Z,85.92
2022-10-31T05:04:50.912Z,85.60
2022-10-31T05:07:18.613Z,86.75
2022-10-31T05:09:46.714Z,85.32
2022-10-31T05:12:14.483Z,84.69
2022-10-31T05:15:00.110Z,83.74
2022-10-31T05:17:46.298Z,83.26
2022-10-31T05:20:33.706Z,85.03
2022-10-31T05:23:15.993Z,85.56
2022-10-31T05:25:44.281Z,85.30
2022-10-31T05:28:12.998Z,85.55
2022-10-31T05:30:40.558Z,85.76
2022-10-31T05:33:12.531Z,85.88
2022-10-31T05:35:58.646Z,86.44
2022-10-31T05:38:32.290Z,86.68
2022-10-31T05:41:07.719Z,86.75
2022-10-31T05:43:34.957Z,86.74
2022-10-31T05:46:05.393Z,86.73
2022-10-31T05:49:07.121Z,86.23
2022-10-31T05:51:52.854Z,86.63
2022-10-31T05:54:23.083Z,87.59
2022-10-31T05:56:51.401Z,86.62
2022-10-31T05:59:18.604Z,86.43
2022-10-31T06:01:45.509Z,85.42
2022-10-31T06:04:32.486Z,85.46
2022-10-31T06:06:59.373Z,84.46
2022-10-31T06:09:26.288Z,84.51
2022-10-31T06:11:54.800Z,84.77
2022-10-31T06:14:41.504Z,84.91
2022-10-31T06:17:08.636Z,85.14
2022-10-31T06:22:22.809Z,85.10
2022-10-31T06:24:49.556Z,85.93
2022-10-31T06:27:33.914Z,85.75
2022-10-31T06:30:09.797Z,85.33
2022-10-31T06:32:37.602Z,86.60
2022-10-31T06:35:05.639Z,86.74
2022-10-31T06:37:35.616Z,86.41
2022-10-31T06:40:13.265Z,85.98
2022-10-31T06:43:02.788Z,85.75
2022-10-31T06:45:31.475Z,86.23
2022-10-31T06:48:18.253Z,87.81
2022-10-31T06:51:04.198Z,91.58
2022-10-31T06:53:32.292Z,89.46
2022-10-31T06:55:59.416Z,88.67
2022-10-31T06:58:28.145Z,93.15
2022-10-31T07:01:00.933Z,94.29
2022-10-31T07:03:27.704Z,92.58
2022-10-31T07:05:56.196Z,90.01
2022-10-31T07:08:23.131Z,87.76
2022-10-31T07:10:54.207Z,84.21
2022-10-31T07:13:22.940Z,81.19
2022-10-31T07:16:01.692Z,80.82
2022-10-31T07:18:30.144Z,80.65
2022-10-31T07:20:57.257Z,78.15
2022-10-31T07:23:24.371Z,76.98
2022-10-31T07:26:11.474Z,75.86
2022-10-31T07:28:43.899Z,75.70
2022-10-31T07:31:14.755Z,75.50
2022-10-31T07:33:41.778Z,75.90
2022-10-31T07:36:26.888Z,75.36
2022-10-31T07:38:56.846Z,75.77
2022-10-31T07:41:24.174Z,75.99
2022-10-31T07:43:51.415Z,75.31
2022-10-31T07:46:20.660Z,77.33
2022-10-31T07:49:06.169Z,77.04
2022-10-31T07:51:52.101Z,78.12
2022-10-31T07:54:38.641Z,78.46
2022-10-31T07:57:08.825Z,78.99
2022-10-31T07:59:35.701Z,80.51
2022-10-31T08:02:03.908Z,78.73
2022-10-31T08:04:30.691Z,80.29
2022-10-31T08:07:27.352Z,79.01
2022-10-31T08:10:00.318Z,79.71
2022-10-31T08:12:30.896Z,79.28
2022-10-31T08:14:58.127Z,78.09
2022-10-31T08:17:26.478Z,80.03
2022-10-31T08:19:58.055Z,82.42
2022-10-31T08:22:33.061Z,80.19
2022-10-31T08:25:01.340Z,81.23
2022-10-31T08:27:28.384Z,79.17
2022-10-31T08:29:57.427Z,78.96
2022-10-31T08:32:25.857Z,79.49
2022-10-31T08:35:28.289Z,76.49
2022-10-31T08:38:33.681Z,78.49
2022-10-31T08:41:00.999Z,75.81
2022-10-31T08:43:27.857Z,78.09
2022-10-31T08:45:55.359Z,77.31
2022-10-31T08:48:29.975Z,76.89
2022-10-31T08:50:58.563Z,76.88
2022-10-31T08:53:26.918Z,76.73
2022-10-31T08:56:08.922Z,77.68
2022-10-31T08:58:40.214Z,76.63
2022-10-31T09:01:09.079Z,76.90
2022-10-31T09:03:37.684Z,77.32
2022-10-31T09:06:06.459Z,78.30
2022-10-31T09:08:34.023Z,78.83
2022-10-31T09:11:03.125Z,79.21
2022-10-31T09:13:48.847Z,78.99
2022-10-31T09:16:34.075Z,78.53
2022-10-31T09:19:06.179Z,78.34
2022-10-31T09:21:35.868Z,77.32
2022-10-31T09:24:02.762Z,77.71
2022-10-31T09:26:29.541Z,77.35
2022-10-31T09:28:59.016Z,77.90
2022-10-31T09:31:26.167Z,77.75
2022-10-31T09:33:54.300Z,77.21
2022-10-31T09:36:38.753Z,76.84
2022-10-31T09:39:13.076Z,77.18
2022-10-31T09:42:03.785Z,76.07
2022-10-31T09:44:46.314Z,75.00
2022-10-31T09:47:46.109Z,74.64
2022-10-31T09:50:42.163Z,75.24
2022-10-31T09:53:39.599Z,71.98
2022-10-31T09:56:12.201Z,69.71
2022-10-31T09:58:45.661Z,66.59
2022-10-31T10:01:34.662Z,62.98
2022-10-31T10:04:19.874Z,62.29
2022-10-31T10:07:25.833Z,66.22
2022-10-31T10:10:28.223Z,65.63
2022-10-31T10:13:30.177Z,66.83
2022-10-31T10:16:16.912Z,66.38
2022-10-31T10:19:03.632Z,65.73
2022-10-31T10:21:43.860Z,64.32
2022-10-31T10:24:29.168Z,64.29
2022-10-31T10:27:20.719Z,64.72
2022-10-31T10:29:59.443Z,66.12
2022-10-31T10:32:30.899Z,67.19
2022-10-31T10:35:18.910Z,66.61
2022-10-31T10:37:51.654Z,67.20
2022-10-31T10:40:24.687Z,66.85
2022-10-31T10:43:12.711Z,68.14
2022-10-31T10:45:41.253Z,74.19
2022-10-31T10:48:17.015Z,78.29
2022-10-31T10:50:50.393Z,79.07
2022-10-31T10:53:40.336Z,77.68
2022-10-31T10:56:18.496Z,76.44
2022-10-31T10:58:46.678Z,74.99
2022-10-31T11:03:42.823Z,72.60
2022-10-31T11:06:19.661Z,72.47
2022-10-31T11:08:46.579Z,71.58
2022-10-31T11:11:26.534Z,71.02
2022-10-31T11:14:03.931Z,70.85
2022-10-31T11:16:40.638Z,70.54
2022-10-31T11:19:16.855Z,69.91
2022-10-31T11:21:44.821Z,69.09
2022-10-31T11:24:21.734Z,69.17
2022-10-31T11:26:51.791Z,69.40
2022-10-31T11:29:24.355Z,69.35
2022-10-31T11:31:56.069Z,69.67
2022-10-31T11:34:31.683Z,69.63
2022-10-31T11:37:13.563Z,69.46
2022-10-31T11:39:44.913Z,69.74
2022-10-31T11:42:14.319Z,70.30
2022-10-31T11:44:44.908Z,71.31
2022-10-31T11:47:17.483Z,72.12
2022-10-31T11:49:48.852Z,72.01
2022-10-31T11:52:26.028Z,73.29
2022-10-31T11:54:58.069Z,74.13
2022-10-31T11:57:28.844Z,73.71
2022-10-31T11:59:59.452Z,73.75
2022-10-31T12:02:27.704Z,73.17
2022-10-31T12:05:08.656Z,72.78
2022-10-31T12:07:36.112Z,73.22
2022-10-31T12:10:12.628Z,73.00
2022-10-31T12:12:59.152Z,72.75
2022-10-31T12:15:34.864Z,72.69
2022-10-31T12:18:38.332Z,73.77
2022-10-31T12:21:24.162Z,74.48
2022-10-31T12:24:10.253Z,72.68
2022-10-31T12:26:52.740Z,71.28
2022-10-31T12:29:41.482Z,70.65
2022-10-31T12:32:37.892Z,70.44
2022-10-31T12:35:28.313Z,70.28
2022-10-31T12:38:19.009Z,69.58
2022-10-31T12:41:12.579Z,69.60
2022-10-31T12:43:53.185Z,69.11
2022-10-31T12:46:43.707Z,69.10
2022-10-31T12:49:37.789Z,69.36
2022-10-31T12:52:33.699Z,69.35
2022-10-31T12:55:27.256Z,68.93
2022-10-31T12:58:02.447Z,68.61
2022-10-31T13:00:36.701Z,68.23
2022-10-31T13:03:21.467Z,68.95
2022-10-31T13:05:58.946Z,68.94
2022-10-31T13:08:38.258Z,68.74
2022-10-31T13:11:14.554Z,69.42
2022-10-31T13:13:51.546Z,69.27
2022-10-31T13:16:25.183Z,69.19
2022-10-31T13:18:58.138Z,68.98
2022-10-31T13:21:37.219Z,70.06
2022-10-31T13:24:17.305Z,71.60
2022-10-31T13:26:49.945Z,71.90
2022-10-31T13:29:29.839Z,72.48
2022-10-31T13:32:01.062Z,73.07
2022-10-31T13:34:33.925Z,73.20
2022-10-31T13:37:16.166Z,73.92
2022-10-31T13:40:04.162Z,74.31
2022-10-31T13:42:49.936Z,74.99
2022-10-31T13:45:20.379Z,75.00
2022-10-31T13:47:59.540Z,74.96
2022-10-31T13:50:29.990Z,75.12
2022-10-31T13:53:21.034Z,75.37
2022-10-31T13:55:51.490Z,74.91
2022-10-31T13:58:26.728Z,74.48
2022-10-31T14:01:17.609Z,74.12
2022-10-31T14:04:16.767Z,73.43
2022-10-31T14:06:54.290Z,73.06
2022-10-31T14:09:29.897Z,71.97
2022-10-31T14:12:00.794Z,72.07
2022-10-31T14:14:40.836Z,72.07
2022-10-31T14:17:21.316Z,71.66
2022-10-31T14:20:22.561Z,72.05
2022-10-31T14:22:49.654Z,72.36
2022-10-31T14:25:30.613Z,73.86
2022-10-31T14:27:59.708Z,74.29
2022-10-31T14:30:29.648Z,75.42
2022-10-31T14:33:00.818Z,75.60
2022-10-31T14:35:47.957Z,76.40
2022-10-31T14:38:43.405Z,76.66
2022-10-31T14:41:35.767Z,76.80
2022-10-31T14:44:42.997Z,76.92
2022-10-31T14:47:24.944Z,76.66
2022-10-31T14:50:20.018Z,76.76
2022-10-31T14:52:52.582Z,76.63
2022-10-31T14:55:21.960Z,76.95
2022-10-31T14:57:57.013Z,76.81
2022-10-31T15:00:25.455Z,76.72
2022-10-31T15:03:10.623Z,77.12
2022-10-31T15:05:48.250Z,77.46
2022-10-31T15:08:33.515Z,77.18
2022-10-31T15:11:09.732Z,77.33
2022-10-31T15:13:44.402Z,77.56
2022-10-31T15:16:15.056Z,77.57
2022-10-31T15:18:50.955Z,77.91
2022-10-31T15:21:20.565Z,77.78
2022-10-31T15:23:48.683Z,78.04
2022-10-31T15:26:20.188Z,78.52
2022-10-31T15:28:59.334Z,79.02
2022-10-31T15:31:26.126Z,79.16
2022-10-31T15:33:57.449Z,79.57
2022-10-31T15:36:29.127Z,79.79
2022-10-31T15:38:58.588Z,80.61
2022-10-31T15:41:33.342Z,80.79
2022-10-31T15:44:13.317Z,81.17
2022-10-31T15:46:40.684Z,82.22
2022-10-31T15:49:27.429Z,82.98
2022-10-31T15:51:54.864Z,82.97
2022-10-31T15:54:22.510Z,83.27
2022-10-31T15:56:49.311Z,84.15
2022-10-31T15:59:27.467Z,83.96
2022-10-31T16:02:02.972Z,84.03
2022-10-31T16:04:30.759Z,84.33
2022-10-31T16:07:01.654Z,84.29
2022-10-31T16:09:29.117Z,84.18
2022-10-31T16:11:58.531Z,85.19
2022-10-31T16:14:31.723Z,85.97
2022-10-31T16:17:02.281Z,86.63
2022-10-31T16:19:34.786Z,87.38
2022-10-31T16:22:10.249Z,87.71
2022-10-31T16:24:48.991Z,87.52
2022-10-31T16:27:21.784Z,87.65
2022-10-31T16:29:50.346Z,87.86
2022-10-31T16:32:36.795Z,87.73
2022-10-31T16:35:26.438Z,87.74
2022-10-31T16:37:54.435Z,87.56
2022-10-31T16:40:21.774Z,87.87
2022-10-31T16:42:48.919Z,87.81
2022-10-31T16:45:21.257Z,87.68
2022-10-31T16:47:49.716Z,88.36
2022-10-31T16:50:21.514Z,88.63
2022-10-31T16:55:43.568Z,89.03
2022-10-31T16:58:18.400Z,88.61
2022-10-31T17:00:46.869Z,88.58
2022-10-31T17:03:13.693Z,88.43
2022-10-31T17:05:40.816Z,88.11
2022-10-31T17:08:07.800Z,88.39
2022-10-31T17:10:35.693Z,88.02
2022-10-31T17:13:08.374Z,88.03
2022-10-31T17:15:42.635Z,88.08
2022-10-31T17:18:13.541Z,87.51
2022-10-31T17:20:41.750Z,87.75
2022-10-31T17:23:10.854Z,87.70
2022-10-31T17:25:38.324Z,87.51
2022-10-31T17:28:05.936Z,87.80
2022-10-31T17:30:34.694Z,87.71
2022-10-31T17:33:01.754Z,87.14
2022-10-31T17:35:30.249Z,87.71
2022-10-31T17:37:56.966Z,87.12
2022-10-31T17:40:24.667Z,87.03
2022-10-31T17:42:53.125Z,86.80
2022-10-31T17:45:21.910Z,86.74
2022-10-31T17:47:50.888Z,87.65
2022-10-31T17:50:20.196Z,89.32
2022-10-31T17:52:48.908Z,89.16
2022-10-31T17:55:16.684Z,88.89
2022-10-31T17:57:44.412Z,88.93
2022-10-31T18:00:14.921Z,89.34
2022-10-31T18:02:42.346Z,90.06
2022-10-31T18:05:10.154Z,89.99
2022-10-31T18:07:36.892Z,90.63
2022-10-31T18:10:06.633Z,90.95
2022-10-31T18:12:36.469Z,90.82
2022-10-31T18:15:04.719Z,91.24
2022-10-31T18:17:31.434Z,90.92
2022-10-31T18:19:58.199Z,91.49
2022-10-31T18:22:25.209Z,90.96
2022-10-31T18:24:51.970Z,91.23
2022-10-31T18:27:20.003Z,91.03
2022-10-31T18:29:46.889Z,90.95
2022-10-31T18:32:14.061Z,90.62
2022-10-31T18:34:40.722Z,90.71
2022-10-31T18:37:07.539Z,91.10
2022-10-31T18:39:34.287Z,90.58
2022-10-31T18:42:01.280Z,90.05
2022-10-31T18:44:29.440Z,90.86
2022-10-31T18:46:56.548Z,91.09
2022-10-31T18:49:23.275Z,91.11
2022-10-31T18:51:50.990Z,91.05
2022-10-31T18:54:18.192Z,90.68
2022-10-31T18:56:45.398Z,90.40
2022-10-31T18:59:12.718Z,90.12
2022-10-31T19:01:40.886Z,90.50
2022-10-31T19:04:07.832Z,90.45
2022-10-31T19:06:34.887Z,90.03
2022-10-31T19:09:06.449Z,90.05
2022-10-31T19:11:34.887Z,90.11
2022-10-31T19:14:02.307Z,89.98
2022-10-31T19:16:30.055Z,90.12
2022-10-31T19:18:58.688Z,89.73
2022-10-31T19:21:26.223Z,89.95
2022-10-31T19:23:54.641Z,89.89
2022-10-31T19:26:22.353Z,90.12
2022-10-31T19:28:49.051Z,89.60
2022-10-31T19:31:16.073Z,91.21
2022-10-31T19:33:43.251Z,92.35
2022-10-31T19:36:14.905Z,92.72
2022-10-31T19:38:44.811Z,92.97
2022-10-31T19:41:17.609Z,92.55
2022-10-31T19:43:45.282Z,92.39
2022-10-31T19:46:22.272Z,92.57
2022-10-31T19:48:55.082Z,92.33
2022-10-31T19:51:23.229Z,92.11
2022-10-31T19:53:49.982Z,92.32
2022-10-31T19:56:19.346Z,91.46
2022-10-31T19:58:46.663Z,91.66
2022-10-31T20:01:16.548Z,91.06
2022-10-31T20:03:45.525Z,91.74
2022-10-31T20:06:21.025Z,92.03
2022-10-31T20:08:49.471Z,91.95
2022-10-31T20:11:16.856Z,92.29
2022-10-31T20:13:43.998Z,92.21
2022-10-31T20:16:13.908Z,92.09
2022-10-31T20:18:42.244Z,91.38
2022-10-31T20:21:13.122Z,91.93
2022-10-31T20:23:41.121Z,92.09
2022-10-31T20:26:14.193Z,92.48
2022-10-31T20:28:43.212Z,92.78
2022-10-31T20:31:13.640Z,92.90
2022-10-31T20:33:40.909Z,92.78
2022-10-31T20:36:09.000Z,91.97
2022-10-31T20:38:38.471Z,91.08
2022-10-31T20:41:08.254Z,91.43
2022-10-31T20:43:37.778Z,91.22
2022-10-31T20:46:07.569Z,91.21
2022-10-31T20:48:34.755Z,90.90
2022-10-31T20:51:05.339Z,90.03
2022-10-31T20:53:33.110Z,90.19
2022-10-31T20:56:06.763Z,90.35
2022-10-31T20:58:36.509Z,90.32
2022-10-31T21:01:04.145Z,90.03
2022-10-31T21:03:31.012Z,89.97
2022-10-31T21:06:00.348Z,91.42
2022-10-31T21:08:30.810Z,91.50
2022-10-31T21:10:58.437Z,90.73
2022-10-31T21:13:25.970Z,90.55
2022-10-31T21:16:01.176Z,89.98
2022-10-31T21:18:29.145Z,89.88
2022-10-31T21:20:56.018Z,89.83
2022-10-31T21:23:23.880Z,89.11
2022-10-31T21:25:50.667Z,89.54
2022-10-31T21:28:17.514Z,90.06
2022-10-31T21:30:50.154Z,90.41
2022-10-31T21:33:18.483Z,91.37
2022-10-31T21:35:50.143Z,91.17
2022-10-31T21:38:17.006Z,91.19
2022-10-31T21:40:44.616Z,91.81
2022-10-31T21:43:11.524Z,90.93
2022-10-31T21:45:38.232Z,91.00
2022-10-31T21:48:05.829Z,90.66
2022-10-31T21:50:34.332Z,90.99
2022-10-31T21:53:01.296Z,91.11
2022-10-31T21:55:28.211Z,90.85
2022-10-31T21:57:55.043Z,91.00
2022-10-31T22:00:22.045Z,91.74
2022-10-31T22:02:48.765Z,92.87
2022-10-31T22:05:15.982Z,94.08
2022-10-31T22:07:44.271Z,93.29
2022-10-31T22:10:11.032Z,93.70
2022-10-31T22:12:37.712Z,93.75
2022-10-31T22:15:05.252Z,93.54
2022-10-31T22:17:31.947Z,93.57
2022-10-31T22:19:58.681Z,92.88
2022-10-31T22:22:25.600Z,92.51
2022-10-31T22:24:53.608Z,91.40
2022-10-31T22:27:20.409Z,91.09
2022-10-31T22:29:47.093Z,90.88
2022-10-31T22:32:13.986Z,90.41
2022-10-31T22:34:40.696Z,90.15
2022-10-31T22:37:07.676Z,89.96
2022-10-31T22:39:34.404Z,89.43
2022-10-31T22:42:02.498Z,89.44
2022-10-31T22:44:29.201Z,89.29
2022-10-31T22:46:55.956Z,89.10
2022-10-31T22:49:22.850Z,88.97
2022-10-31T22:51:50.947Z,88.35
2022-10-31T22:54:18.555Z,88.98
2022-10-31T22:56:45.761Z,89.44
2022-10-31T22:59:16.597Z,89.38
2022-10-31T23:01:44.356Z,89.33
2022-10-31T23:04:12.531Z,89.51
2022-10-31T23:06:39.861Z,89.54
2022-10-31T23:09:07.945Z,89.42
2022-10-31T23:11:38.393Z,89.46
2022-10-31T23:14:09.382Z,89.29
2022-10-31T23:16:43.441Z,88.80
2022-10-31T23:19:15.702Z,88.87
2022-10-31T23:21:45.309Z,88.84
2022-10-31T23:24:13.030Z,87.93
2022-10-31T23:26:40.049Z,87.95
2022-10-31T23:29:07.060Z,87.98
2022-10-31T23:31:33.872Z,88.15
2022-10-31T23:34:02.137Z,90.06
2022-10-31T23:36:28.859Z,90.32
2022-10-31T23:38:55.802Z,91.32
2022-10-31T23:41:22.625Z,91.99
2022-10-31T23:43:49.289Z,91.71
2022-10-31T23:46:16.038Z,90.97
2022-10-31T23:48:42.946Z,91.43
2022-10-31T23:51:11.039Z,91.34
2022-10-31T23:53:37.731Z,91.52
2022-10-31T23:56:05.348Z,91.60
2022-10-31T23:58:32.033Z,91.60
